KROS

Details ICAO KROS
Name RUSH CITY RGNL
Region United States
Timezone America/Chicago (UTC-6.0)
Plans Departing 2
Arriving 3
Stats Elevation 923 ft / 281 m (AMSL)
Location 45.698443° -92.953254°
Runways 1
Magnetic Variation 0.130° W
Sunrise 2017-12-15 13:47:25 UTC / 2017-12-15 07:47:25 Local
Sunset 2017-12-15 22:29:33 UTC / 2017-12-15 16:29:33 Local
Advertisement - Login to hide

Runways

ID Width Length Bearing (true) Bearing (mag) Surface Threshold Offset Overrun Length
16 75 ft / 23 m 4,402 ft / 1,342 m 160.32° 160.45° Asphalt 0 ft / 0 m 0 ft / 0 m
34 75 ft / 23 m 4,402 ft / 1,342 m 340.33° 340.46° Asphalt 0 ft / 0 m 0 ft / 0 m

Map

Weather


0- 5 10 15 20 25 30 35+ Temperature / ° C

Clouds and Precipitation
Forecast for 2017-12-16 06:00 UTC. Updated 31 minutes ago

Ground ~20,000 ft ~40,000 ft Winds

METAR

KROS 160335Z AUTO 07003KT 2SM -SN BKN010 OVC022 M07/M08 A2973 RMK AO2 T10701081

TAF

Not found

Frequencies

Unicom 122.90 MHz CTAF
Warning: Do not use this data for real-world aviation or navigation. No guarantee of current accuracy is given.